Domov               UVHVVR             MKGP            O straneh              
ZDRAVSTVENO VARSTVO RASTLIN
  MREŽA AGROMET. POSTAJ
 ► PROGNOSTIČNA OBVESTILA
AGROMETEOROLOŠKI PODATKI -
ARSO
OBVLADOVANJE TVEGANJ ZARADI
NEUGODNIH VREMENSKIH RAZMER
  ► NARAVNE NESREČE
  ► SUŠA/MOČA
  ► NAMAKANJE
  ► ŽLED (gozdarstvo)
KARTOGRAFSKI PRIKAZI
SPLETNE POVEZAVE
PROJEKTI IN PUBLIKACIJE

AGROMETEOROLOŠKA MREŽA: VREMENSKE POSTAJE IN FENOLOŠKA OPAZOVANJA

Pregled podatkov za lokacijo Zavrhek, meteorološka postaja 37907

Pregled senzorjev na lokaciji

ID Ime Zadnja
vrednost
Datum in čas
zadnje
spremembe
(Lokalni čas)
Tip
senzorja
1992 Omočenost lista (1,5 m) (U) 0 U 23.1.2022 16:00 A730WET
5080 Padavine (mm) 0 mm 23.1.2022 16:00 Generic 0.2 mm
1990 Relativna zračna vlaga (2 m) (%RH) 71 %RH 23.1.2022 16:00 50YA
1989 Temperatura (2 m) (°C) 6.2 °C 23.1.2022 16:00 50YA

Pregled podatkov zadnjih 24 ur

Zap.
št.
Datum in čas
(Centralno
evropski čas)
Zavrhek
Omočenost
lista
(1,5
m)
Padavine Relativna
zračna
vlaga
(2
m)
Temperatura
(2
m)
1 23.1.2022 15:30 0 0 64.2 7.3
2 23.1.2022 15:00 0 0 58.7 8.6
3 23.1.2022 14:30 0 0 60.1 8.4
4 23.1.2022 14:00 0 0 64.6 7.5
5 23.1.2022 13:30 0 0 64.8 7.2
6 23.1.2022 13:00 0 0 70.2 5.8
7 23.1.2022 12:30 0 0 73.4 4.9
8 23.1.2022 12:00 0 0 75.8 4
9 23.1.2022 11:30 0 0 79.4 2.8
10 23.1.2022 11:00 0 0 84.8 1.4
11 23.1.2022 10:30 0 0 91.6 -0.3
12 23.1.2022 10:00 3 0 94.8 -2
13 23.1.2022 09:30 1 0 95.3 -4.8
14 23.1.2022 09:00 0 0 94.9 -6.3
15 23.1.2022 08:30 0 0 94.8 -6.8
16 23.1.2022 08:00 0 0 94.9 -6.9
17 23.1.2022 07:30 0 0 94.8 -6.8
18 23.1.2022 07:00 0 0 94.9 -6.6
19 23.1.2022 06:30 0 0 95 -6.1
20 23.1.2022 06:00 0 0 95.8 -6
21 23.1.2022 05:30 0 0 95.5 -6.6
22 23.1.2022 05:00 0 0 95.6 -6.4
23 23.1.2022 04:30 0 0 95.5 -6.3
24 23.1.2022 04:00 0 0 95.5 -6
25 23.1.2022 03:30 0 0 95.3 -5.7
26 23.1.2022 03:00 0 0 95.2 -5.3
27 23.1.2022 02:30 0 0 94.8 -5.1
28 23.1.2022 02:00 0 0 94.4 -4.9
29 23.1.2022 01:30 0 0 93.5 -4.5
30 23.1.2022 01:00 0 0 92.7 -4.2
31 23.1.2022 00:30 0 0 90.5 -4
32 23.1.2022 00:00 1 0 82.9 -2
33 22.1.2022 23:30 3 0 80.3 0.3
34 22.1.2022 23:00 0 0 91.4 -3.1
35 22.1.2022 22:30 0 0 89.7 -3.2
36 22.1.2022 22:00 1 0 86.3 -2.1
37 22.1.2022 21:30 1 0 88.3 -2
38 22.1.2022 21:00 0 0 90.9 -3.5
39 22.1.2022 20:30 1 0 87.4 -2.4
40 22.1.2022 20:00 0 0 90.1 -2.7
41 22.1.2022 19:30 0 0 90.3 -2.5
42 22.1.2022 19:00 0 0 90.9 -2.7
43 22.1.2022 18:30 1 0 90.3 -2.3
44 22.1.2022 18:00 1 0 89.9 -2.1
45 22.1.2022 17:30 1 0 87.8 -1.3
46 22.1.2022 17:00 3 0 84.7 -0.4
47 22.1.2022 16:30 0 0 80.8 0.5
© 2011 Ministrstvo za kmetijstvo, gozdarstvo in prehrano. Vse pravice pridržane.